createdAt,value
2019-03-20T00:01:43.199Z,7.73
2019-03-20T00:08:18.846Z,7.23
2019-03-20T00:15:06.279Z,7.87
2019-03-20T00:21:51.131Z,7.20
2019-03-20T00:28:36.056Z,7.30
2019-03-20T00:35:22.111Z,7.50
2019-03-20T00:42:07.327Z,7.63
2019-03-20T00:48:52.342Z,6.97
2019-03-20T00:55:37.519Z,7.47
2019-03-20T01:02:22.372Z,7.50
2019-03-20T01:09:07.768Z,7.70
2019-03-20T01:15:52.765Z,7.40
2019-03-20T01:22:38.098Z,7.10
2019-03-20T01:29:23.038Z,7.13
2019-03-20T01:36:08.887Z,6.07
2019-03-20T01:42:54.283Z,7.00
2019-03-20T01:49:39.142Z,7.40
2019-03-20T01:56:24.071Z,7.50
2019-03-20T02:03:08.941Z,7.05
2019-03-20T02:09:53.914Z,7.80
2019-03-20T02:16:38.767Z,7.83
2019-03-20T02:23:23.804Z,7.77
2019-03-20T02:30:14.318Z,8.17
2019-03-20T02:36:59.464Z,8.77
2019-03-20T02:43:45.891Z,8.17
2019-03-20T02:50:30.762Z,9.03
2019-03-20T02:57:17.396Z,7.90
2019-03-20T03:04:02.343Z,8.20
2019-03-20T03:10:47.523Z,7.35
2019-03-20T03:17:32.516Z,6.80
2019-03-20T03:24:17.374Z,7.13
2019-03-20T03:31:02.327Z,6.73
2019-03-20T03:37:47.255Z,6.80
2019-03-20T03:44:32.124Z,6.83
2019-03-20T03:51:17.142Z,7.60
2019-03-20T03:58:02.344Z,7.03
2019-03-20T04:04:48.014Z,8.20
2019-03-20T04:11:33.348Z,8.60
2019-03-20T04:18:19.176Z,8.33
2019-03-20T04:25:05.272Z,7.23
2019-03-20T04:31:50.128Z,7.30
2019-03-20T04:38:34.983Z,7.33
2019-03-20T04:45:19.847Z,7.97
2019-03-20T04:52:05.118Z,7.63
2019-03-20T04:58:49.975Z,8.13
2019-03-20T05:05:34.831Z,8.27
2019-03-20T05:12:19.691Z,7.23
2019-03-20T05:19:04.606Z,6.90
2019-03-20T05:25:49.458Z,8.50
2019-03-20T05:32:34.319Z,7.80
2019-03-20T05:39:19.180Z,9.13
2019-03-20T05:46:04.291Z,10.20
2019-03-20T05:52:49.215Z,9.03
2019-03-20T05:59:34.175Z,9.43
2019-03-20T06:06:19.026Z,9.80
2019-03-20T06:13:03.970Z,9.53
2019-03-20T06:19:50.363Z,9.97
2019-03-20T06:26:35.397Z,8.93
2019-03-20T06:33:20.298Z,9.30
2019-03-20T06:40:09.920Z,8.77
2019-03-20T06:46:54.847Z,7.30
2019-03-20T06:53:39.986Z,7.00
2019-03-20T07:00:59.985Z,8.80
2019-03-20T07:07:44.766Z,9.25
2019-03-20T07:14:29.638Z,8.93
2019-03-20T07:21:14.507Z,8.15
2019-03-20T07:27:59.542Z,8.87
2019-03-20T07:34:44.682Z,7.75
2019-03-20T07:41:29.817Z,8.05
2019-03-20T07:48:21.964Z,9.00
2019-03-20T07:55:01.965Z,7.70
2019-03-20T08:01:46.899Z,7.60
2019-03-20T08:08:31.766Z,7.05
2019-03-20T08:15:17.506Z,7.28
2019-03-20T08:22:02.507Z,7.85
2019-03-20T08:28:47.375Z,7.15
2019-03-20T08:35:32.389Z,7.45
2019-03-20T08:42:17.400Z,5.92
2019-03-20T08:49:02.354Z,6.80
2019-03-20T08:55:47.286Z,6.12
2019-03-20T09:02:32.151Z,6.70
2019-03-20T09:09:17.025Z,6.87
2019-03-20T09:16:01.894Z,5.58
2019-03-20T09:22:46.894Z,6.12
2019-03-20T09:29:35.933Z,5.58
2019-03-20T09:36:18.347Z,5.35
2019-03-20T09:43:03.356Z,4.03
2019-03-20T09:49:48.220Z,4.62
2019-03-20T09:56:33.090Z,3.90
2019-03-20T10:03:18.031Z,3.72
2019-03-20T10:10:02.897Z,4.03
2019-03-20T10:16:47.833Z,3.40
2019-03-20T10:23:32.767Z,2.77
2019-03-20T10:30:20.114Z,2.30
2019-03-20T10:37:05.048Z,1.90
2019-03-20T10:43:52.219Z,2.10
2019-03-20T10:50:36.542Z,2.30
2019-03-20T10:57:21.807Z,2.65
2019-03-20T11:04:06.748Z,2.53
2019-03-20T11:10:51.921Z,2.45
2019-03-20T11:17:36.782Z,2.50
2019-03-20T11:24:22.684Z,3.00
2019-03-20T11:31:07.544Z,3.33
2019-03-20T11:37:52.551Z,2.63
2019-03-20T11:44:37.413Z,2.87
2019-03-20T11:51:22.346Z,3.07
2019-03-20T11:58:07.682Z,3.10
2019-03-20T12:04:54.073Z,3.23
2019-03-20T12:11:45.702Z,3.20
2019-03-20T12:18:25.647Z,3.20
2019-03-20T12:25:19.623Z,2.73
2019-03-20T12:32:04.546Z,2.50
2019-03-20T12:38:49.403Z,2.97
2019-03-20T12:45:35.325Z,2.40
2019-03-20T12:52:20.861Z,2.53
2019-03-20T12:59:07.977Z,2.83
2019-03-20T13:05:52.894Z,2.47
2019-03-20T13:12:37.752Z,2.47
2019-03-20T13:19:22.675Z,2.27
2019-03-20T13:26:07.619Z,2.57
2019-03-20T13:32:53.728Z,2.37
2019-03-20T13:39:38.579Z,3.40
2019-03-20T13:46:23.451Z,2.70
2019-03-20T13:53:08.311Z,2.52
2019-03-20T13:59:53.167Z,2.40
2019-03-20T14:06:38.099Z,2.90
2019-03-20T14:13:23.059Z,2.17
2019-03-20T14:20:11.014Z,2.00
2019-03-20T14:26:55.867Z,2.33
2019-03-20T14:33:40.724Z,2.07
2019-03-20T14:40:36.913Z,2.07
2019-03-20T14:47:19.999Z,2.33
2019-03-20T14:54:05.186Z,2.33
2019-03-20T15:00:50.039Z,2.30
2019-03-20T15:07:35.007Z,3.47
2019-03-20T15:14:21.857Z,2.50
2019-03-20T15:21:06.788Z,2.33
2019-03-20T15:27:52.816Z,2.30
2019-03-20T15:34:37.676Z,2.37
2019-03-20T15:41:22.543Z,2.30
2019-03-20T15:48:07.390Z,2.37
2019-03-20T15:54:52.250Z,2.67
2019-03-20T16:01:37.108Z,4.20
2019-03-20T16:08:23.006Z,2.10
2019-03-20T16:15:13.611Z,2.40
2019-03-20T16:21:58.595Z,2.50
2019-03-20T16:28:43.454Z,2.33
2019-03-20T16:35:28.455Z,3.10
2019-03-20T16:42:13.383Z,2.70
2019-03-20T16:48:59.924Z,2.50
2019-03-20T16:55:44.868Z,2.60
2019-03-20T17:02:29.720Z,2.50
2019-03-20T17:09:14.791Z,2.07
2019-03-20T17:15:59.727Z,2.20
2019-03-20T17:22:44.583Z,2.90
2019-03-20T17:29:29.442Z,2.73
2019-03-20T17:36:14.371Z,2.23
2019-03-20T17:42:59.291Z,2.47
2019-03-20T17:49:44.203Z,2.20
2019-03-20T17:56:29.066Z,2.60
2019-03-20T18:03:14.495Z,4.23
2019-03-20T18:09:59.517Z,2.90
2019-03-20T18:16:44.594Z,3.67
2019-03-20T18:23:29.514Z,3.57
2019-03-20T18:30:25.763Z,3.23
2019-03-20T18:37:10.623Z,4.20
2019-03-20T18:43:55.478Z,3.43
2019-03-20T18:50:40.522Z,3.77
2019-03-20T18:57:25.372Z,3.50
2019-03-20T19:04:10.218Z,4.07
2019-03-20T19:10:55.402Z,3.43
2019-03-20T19:17:40.410Z,3.50
2019-03-20T19:24:25.340Z,3.70
2019-03-20T19:31:10.427Z,5.07
2019-03-20T19:37:55.521Z,4.27
2019-03-20T19:44:40.638Z,4.03
2019-03-20T19:51:25.499Z,4.80
2019-03-20T19:58:10.481Z,4.40
2019-03-20T20:04:55.378Z,4.53
2019-03-20T20:11:40.339Z,4.80
2019-03-20T20:18:25.259Z,4.43
2019-03-20T20:25:10.352Z,4.20
2019-03-20T20:31:55.212Z,4.23
2019-03-20T20:38:40.134Z,4.97
2019-03-20T20:45:27.928Z,4.50
2019-03-20T20:52:19.347Z,4.23
2019-03-20T20:59:01.483Z,4.73
2019-03-20T21:05:46.538Z,4.87
2019-03-20T21:12:32.433Z,4.77
2019-03-20T21:19:34.283Z,4.50
2019-03-20T21:26:24.946Z,4.80
2019-03-20T21:33:24.920Z,4.40
2019-03-20T21:40:11.649Z,4.67
2019-03-20T21:47:12.298Z,5.10
2019-03-20T21:54:12.781Z,5.53
2019-03-20T22:01:00.838Z,5.78
2019-03-20T22:07:45.684Z,4.83
2019-03-20T22:14:30.949Z,5.30
2019-03-20T22:21:46.347Z,5.70
2019-03-20T22:28:34.598Z,4.93
2019-03-20T22:35:25.434Z,5.10
2019-03-20T22:42:13.366Z,5.27
2019-03-20T22:49:36.648Z,5.43
2019-03-20T22:56:44.259Z,5.67
2019-03-20T23:03:35.116Z,5.87
2019-03-20T23:10:20.285Z,5.60
2019-03-20T23:17:05.370Z,5.77
2019-03-20T23:23:50.227Z,5.27
2019-03-20T23:30:35.539Z,5.20
2019-03-20T23:37:20.526Z,5.17
2019-03-20T23:44:05.506Z,5.27
2019-03-20T23:50:53.430Z,5.53
2019-03-20T23:57:39.458Z,5.50
